Time;durP1;ratioP1;P1;durP2;ratioP2;P2;SDS_P1;SDS_P2;PMS_P1;PMS_P2;Temp;Humidity;BMP_temperature;BMP_pressure;BME280_temperature;BME280_humidity;BME280_pressure;Samples;Min_cycle;Max_cycle;Signal;HPM_P1;HPM_P2
2023/11/27 00:02:22;;;;;;;1.52;1.42;;;16.00;65.10;;;;;;4969345;28;20069;-79
2023/11/27 00:04:48;;;;;;;1.60;1.50;;;16.00;65.10;;;;;;4971694;28;20046;-79
2023/11/27 00:07:14;;;;;;;1.80;1.70;;;16.00;65.10;;;;;;4970264;28;20101;-79
2023/11/27 00:09:39;;;;;;;1.67;1.58;;;15.90;65.10;;;;;;4970232;28;20197;-79
2023/11/27 00:12:06;;;;;;;1.70;1.60;;;15.90;65.10;;;;;;4969441;28;20505;-79
2023/11/27 00:14:31;;;;;;;1.40;1.30;;;15.90;65.20;;;;;;4969942;28;20046;-79
2023/11/27 00:16:57;;;;;;;1.15;1.10;;;15.90;66.00;;;;;;4970961;28;20038;-79
2023/11/27 00:19:23;;;;;;;1.55;1.45;;;15.90;65.30;;;;;;4971304;28;20081;-79
2023/11/27 00:21:48;;;;;;;1.58;1.48;;;15.90;65.30;;;;;;4970428;28;20151;-79
2023/11/27 00:24:14;;;;;;;1.38;1.27;;;15.90;65.30;;;;;;4966057;28;20097;-79
2023/11/27 00:26:39;;;;;;;1.33;1.23;;;15.90;65.30;;;;;;4971341;28;20053;-79
2023/11/27 00:29:05;;;;;;;1.50;1.40;;;15.90;65.40;;;;;;4969382;28;20050;-79
2023/11/27 00:31:32;;;;;;;1.55;1.42;;;15.90;65.50;;;;;;4969130;28;20099;-79
2023/11/27 00:33:57;;;;;;;1.80;1.30;;;15.90;65.40;;;;;;4969607;28;20046;-79
2023/11/27 00:36:23;;;;;;;1.40;1.30;;;15.90;65.40;;;;;;4967046;28;20456;-79
2023/11/27 00:38:49;;;;;;;3.53;1.58;;;15.80;65.40;;;;;;4969265;28;20084;-79
2023/11/27 00:41:14;;;;;;;1.55;1.45;;;15.80;65.50;;;;;;4968570;28;20517;-79
2023/11/27 00:43:46;;;;;;;1.52;1.42;;;15.90;65.60;;;;;;4971064;28;20483;-79
2023/11/27 00:46:12;;;;;;;1.50;1.40;;;15.80;65.60;;;;;;4968451;28;20493;-79
2023/11/27 00:48:38;;;;;;;1.63;1.52;;;15.80;65.60;;;;;;4968863;28;20378;-79
2023/11/27 00:51:07;;;;;;;1.30;1.20;;;15.80;65.60;;;;;;4969507;28;20532;-79
2023/11/27 00:53:33;;;;;;;1.17;1.17;;;15.80;65.60;;;;;;4969990;28;20121;-79
2023/11/27 00:55:58;;;;;;;1.30;1.20;;;15.80;65.70;;;;;;4967191;28;20142;-79
2023/11/27 00:58:24;;;;;;;1.50;1.40;;;15.80;65.80;;;;;;4970520;28;20039;-79
2023/11/27 01:00:50;;;;;;;1.45;1.35;;;15.80;65.70;;;;;;4969812;28;20050;-79
2023/11/27 01:03:16;;;;;;;1.40;1.30;;;15.80;65.80;;;;;;4968637;28;20113;-79
2023/11/27 01:05:43;;;;;;;1.30;1.20;;;15.80;65.80;;;;;;4968892;28;20523;-79
2023/11/27 01:08:08;;;;;;;1.13;1.13;;;15.70;65.80;;;;;;4968330;28;20026;-79
2023/11/27 01:10:34;;;;;;;1.10;1.10;;;15.80;65.90;;;;;;4973168;28;20412;-79
2023/11/27 01:12:59;;;;;;;1.20;1.20;;;15.70;65.90;;;;;;4967543;28;20482;-79
2023/11/27 01:15:25;;;;;;;1.20;1.10;;;15.70;65.90;;;;;;4969566;28;20094;-79
2023/11/27 01:17:50;;;;;;;1.08;1.08;;;15.70;65.90;;;;;;4984593;28;20051;-79
2023/11/27 01:20:16;;;;;;;1.30;1.20;;;15.70;65.90;;;;;;4966691;28;20525;-79
2023/11/27 01:22:41;;;;;;;1.10;1.08;;;15.70;65.90;;;;;;4970269;28;20047;-79
2023/11/27 01:25:07;;;;;;;1.20;1.10;;;15.70;66.00;;;;;;4966269;28;20453;-79
2023/11/27 01:27:33;;;;;;;1.85;1.20;;;15.70;65.90;;;;;;4968159;28;20067;-79
2023/11/27 01:29:59;;;;;;;1.20;1.10;;;15.70;66.00;;;;;;4966461;28;20515;-79
2023/11/27 01:32:24;;;;;;;1.40;1.30;;;15.70;66.00;;;;;;4965330;28;20050;-79
2023/11/27 01:34:51;;;;;;;1.00;1.00;;;15.70;66.00;;;;;;4966785;28;20432;-79
2023/11/27 01:37:17;;;;;;;1.35;1.25;;;15.70;66.10;;;;;;4961774;28;20058;-79
2023/11/27 01:39:43;;;;;;;1.10;1.08;;;15.70;66.10;;;;;;4967449;28;20039;-79
2023/11/27 01:42:09;;;;;;;1.38;1.27;;;15.70;66.10;;;;;;4950839;28;20053;-79
2023/11/27 01:44:37;;;;;;;1.10;1.10;;;15.60;66.10;;;;;;4967091;28;20061;-79
2023/11/27 01:47:03;;;;;;;1.35;1.10;;;15.60;66.20;;;;;;4967430;28;20057;-79
2023/11/27 01:49:29;;;;;;;1.00;1.00;;;15.60;66.30;;;;;;4950962;28;20114;-80
2023/11/27 01:51:55;;;;;;;1.35;1.25;;;15.60;66.10;;;;;;4968693;28;20058;-79
2023/11/27 01:54:20;;;;;;;1.00;1.00;;;15.60;66.20;;;;;;4950594;28;20573;-79
2023/11/27 01:56:50;;;;;;;1.40;1.30;;;15.60;66.20;;;;;;4967091;28;20621;-79
2023/11/27 01:59:16;;;;;;;1.00;1.00;;;15.60;66.30;;;;;;4966337;28;20105;-79
2023/11/27 02:01:42;;;;;;;0.90;0.90;;;15.60;67.10;;;;;;4965415;28;20446;-79
2023/11/27 02:04:08;;;;;;;0.90;0.90;;;15.60;66.30;;;;;;4966243;28;20097;-80
2023/11/27 02:06:33;;;;;;;0.90;0.90;;;15.60;66.30;;;;;;4968944;28;20046;-79
2023/11/27 02:08:59;;;;;;;1.08;1.08;;;15.60;66.40;;;;;;4965548;28;20074;-80
2023/11/27 02:11:27;;;;;;;0.90;0.90;;;15.60;66.40;;;;;;4967991;28;20416;-79
2023/11/27 02:13:53;;;;;;;1.00;1.00;;;15.60;66.40;;;;;;4968847;28;20062;-80
2023/11/27 02:16:18;;;;;;;0.98;0.90;;;15.50;66.30;;;;;;4967893;28;20085;-79
2023/11/27 02:18:44;;;;;;;0.77;0.77;;;15.50;66.30;;;;;;4963044;28;20047;-79
2023/11/27 02:21:10;;;;;;;1.25;1.10;;;15.50;66.30;;;;;;4964879;28;20777;-79
2023/11/27 02:23:37;;;;;;;1.05;1.05;;;15.60;66.50;;;;;;4964297;28;20039;-79
2023/11/27 02:26:03;;;;;;;0.82;0.80;;;15.60;66.50;;;;;;4966146;28;20066;-80
2023/11/27 02:28:29;;;;;;;1.20;1.10;;;15.50;66.50;;;;;;4969285;28;20078;-80
2023/11/27 02:30:54;;;;;;;1.00;1.00;;;15.50;66.30;;;;;;4966278;28;20535;-80
2023/11/27 02:33:21;;;;;;;0.88;0.88;;;15.50;66.30;;;;;;4962842;28;20420;-80
2023/11/27 02:35:47;;;;;;;1.00;1.00;;;15.50;66.50;;;;;;4966552;28;20110;-80
2023/11/27 02:38:13;;;;;;;0.93;0.93;;;15.50;66.50;;;;;;4966847;28;20038;-80
2023/11/27 02:40:38;;;;;;;0.80;0.80;;;15.50;66.40;;;;;;4966762;28;20042;-80
2023/11/27 02:43:04;;;;;;;1.05;1.00;;;15.50;66.40;;;;;;4978652;28;20689;-80
2023/11/27 02:45:29;;;;;;;1.15;1.13;;;15.50;66.30;;;;;;4965063;28;20035;-80
2023/11/27 02:47:55;;;;;;;0.90;0.90;;;15.50;66.20;;;;;;4967876;28;20046;-80
2023/11/27 02:50:22;;;;;;;1.08;0.98;;;15.50;66.50;;;;;;4966206;28;20043;-79
2023/11/27 02:52:48;;;;;;;0.80;0.80;;;15.50;66.40;;;;;;4967275;28;20043;-79
2023/11/27 02:55:14;;;;;;;0.70;0.70;;;15.50;66.50;;;;;;4966645;28;20374;-79
2023/11/27 02:57:39;;;;;;;0.70;0.70;;;15.50;66.50;;;;;;4967942;28;20042;-80
2023/11/27 03:00:05;;;;;;;1.00;0.80;;;15.50;66.50;;;;;;4969296;28;20074;-79
2023/11/27 03:02:32;;;;;;;0.93;0.88;;;15.50;66.30;;;;;;4971332;28;20039;-79
2023/11/27 03:04:58;;;;;;;0.88;0.88;;;15.50;66.50;;;;;;4971500;28;20053;-80
2023/11/27 03:07:23;;;;;;;0.70;0.70;;;15.50;66.40;;;;;;4965817;28;20493;-80
2023/11/27 03:09:49;;;;;;;0.80;0.70;;;15.50;66.40;;;;;;4971465;28;20043;-80
2023/11/27 03:12:15;;;;;;;0.77;0.77;;;15.50;66.50;;;;;;4970072;28;20038;-80
2023/11/27 03:14:40;;;;;;;0.70;0.70;;;15.50;67.20;;;;;;4971855;28;20046;-80
2023/11/27 03:17:06;;;;;;;1.00;0.90;;;15.40;67.20;;;;;;4970310;28;20501;-79
2023/11/27 03:19:31;;;;;;;0.70;0.70;;;15.40;66.40;;;;;;4972994;28;20398;-80
2023/11/27 03:21:57;;;;;;;0.50;0.50;;;15.40;66.50;;;;;;4970870;28;20043;-80
2023/11/27 03:24:22;;;;;;;0.70;0.70;;;15.40;66.40;;;;;;4969803;28;20054;-80
2023/11/27 03:26:48;;;;;;;0.75;0.75;;;15.40;66.50;;;;;;4971909;28;20070;-80
2023/11/27 03:29:13;;;;;;;0.65;0.65;;;15.40;66.40;;;;;;4971445;28;20054;-80
2023/11/27 03:31:39;;;;;;;1.42;0.88;;;15.40;66.50;;;;;;4971836;28;20644;-79
2023/11/27 03:34:05;;;;;;;0.68;0.68;;;15.40;66.50;;;;;;4971205;28;20669;-79
2023/11/27 03:36:30;;;;;;;1.83;0.65;;;15.40;66.50;;;;;;4968434;28;20046;-81
2023/11/27 03:38:56;;;;;;;1.23;0.68;;;15.40;66.50;;;;;;4971967;28;20093;-81
2023/11/27 03:41:21;;;;;;;0.82;0.82;;;15.40;66.50;;;;;;4970522;28;20406;-80
2023/11/27 03:43:50;;;;;;;1.02;0.63;;;15.40;66.60;;;;;;4972218;28;20382;-79
2023/11/27 03:46:15;;;;;;;0.85;0.70;;;15.40;66.60;;;;;;4966146;28;20039;-79
2023/11/27 03:48:41;;;;;;;0.60;0.60;;;15.40;67.40;;;;;;4965310;28;20050;-79
2023/11/27 03:51:07;;;;;;;0.60;0.60;;;15.40;66.60;;;;;;4969833;28;20505;-79
2023/11/27 03:53:33;;;;;;;0.70;0.70;;;15.40;66.70;;;;;;4968586;28;20505;-79
2023/11/27 03:55:59;;;;;;;0.63;0.60;;;15.40;66.70;;;;;;4970925;28;20058;-79
2023/11/27 03:58:25;;;;;;;0.65;0.60;;;15.40;66.70;;;;;;4971079;28;20077;-79
2023/11/27 04:00:51;;;;;;;0.57;0.57;;;15.40;66.80;;;;;;4964272;28;20517;-79
2023/11/27 04:03:16;;;;;;;0.50;0.50;;;15.40;66.90;;;;;;4969538;28;20050;-79
2023/11/27 04:05:42;;;;;;;1.23;0.60;;;15.40;66.90;;;;;;4968476;28;20058;-80
2023/11/27 04:08:08;;;;;;;0.60;0.60;;;15.40;66.90;;;;;;4970367;28;20054;-80
2023/11/27 04:10:34;;;;;;;0.60;0.50;;;15.40;67.70;;;;;;4970544;28;20138;-80
2023/11/27 04:12:59;;;;;;;0.70;0.70;;;15.40;66.90;;;;;;4970393;28;20074;-79
2023/11/27 04:15:25;;;;;;;0.75;0.70;;;15.40;67.00;;;;;;4967009;28;20127;-79
2023/11/27 04:17:50;;;;;;;0.57;0.57;;;15.30;67.00;;;;;;4970621;28;20070;-80
2023/11/27 04:20:16;;;;;;;0.75;0.75;;;15.30;67.00;;;;;;4984828;28;20269;-79
2023/11/27 04:22:46;;;;;;;0.60;0.60;;;15.30;67.80;;;;;;4971796;28;20109;-79
2023/11/27 04:25:11;;;;;;;0.50;0.50;;;15.30;67.10;;;;;;4967417;28;20101;-79
2023/11/27 04:27:37;;;;;;;0.52;0.52;;;15.30;67.10;;;;;;4968905;28;20047;-79
2023/11/27 04:30:05;;;;;;;0.70;0.70;;;15.30;67.10;;;;;;4970474;28;20408;-79
2023/11/27 04:32:30;;;;;;;0.70;0.70;;;15.30;67.20;;;;;;4969546;28;20133;-79
2023/11/27 04:34:56;;;;;;;0.90;0.90;;;15.30;67.10;;;;;;4971113;28;20127;-79
2023/11/27 04:37:21;;;;;;;0.50;0.50;;;15.30;67.20;;;;;;4965825;28;20050;-79
2023/11/27 04:39:47;;;;;;;0.80;0.80;;;15.30;67.20;;;;;;4970264;28;20046;-79
2023/11/27 04:42:12;;;;;;;0.88;0.68;;;15.30;67.30;;;;;;4969126;28;20042;-80
2023/11/27 04:44:39;;;;;;;0.70;0.70;;;15.30;67.30;;;;;;4967919;28;20501;-80
2023/11/27 04:47:05;;;;;;;0.63;0.60;;;15.30;67.40;;;;;;4970017;28;20130;-79
2023/11/27 04:49:31;;;;;;;0.90;0.60;;;15.30;67.40;;;;;;4970525;28;20126;-79
2023/11/27 04:51:56;;;;;;;0.50;0.50;;;15.30;67.40;;;;;;4967516;28;20497;-79
2023/11/27 04:54:22;;;;;;;0.52;0.52;;;15.30;67.50;;;;;;4969422;28;20049;-79
2023/11/27 04:56:48;;;;;;;0.52;0.52;;;15.30;67.40;;;;;;4966430;28;20527;-79
2023/11/27 04:59:13;;;;;;;0.57;0.50;;;15.30;67.50;;;;;;4967615;28;20092;-79
2023/11/27 05:01:39;;;;;;;0.50;0.50;;;15.30;67.50;;;;;;4969791;28;20405;-80
2023/11/27 05:04:05;;;;;;;0.52;0.50;;;15.30;67.50;;;;;;4969917;28;20063;-80
2023/11/27 05:06:31;;;;;;;0.70;0.70;;;15.30;67.60;;;;;;4968995;28;20075;-80
2023/11/27 05:08:56;;;;;;;0.50;0.50;;;15.30;67.60;;;;;;4968900;28;20054;-79
2023/11/27 05:11:22;;;;;;;0.43;0.40;;;15.30;67.60;;;;;;4967743;28;20065;-79
2023/11/27 05:13:48;;;;;;;2.83;0.70;;;15.30;67.70;;;;;;4966833;28;20070;-79
2023/11/27 05:16:14;;;;;;;0.50;0.50;;;15.30;67.70;;;;;;4965318;28;20523;-79
2023/11/27 05:18:41;;;;;;;0.88;0.47;;;15.30;67.70;;;;;;4964900;28;20149;-79
2023/11/27 05:21:11;;;;;;;0.50;0.50;;;15.30;67.80;;;;;;4963305;28;20043;-79
2023/11/27 05:23:36;;;;;;;0.40;0.40;;;15.30;67.70;;;;;;4968744;28;20047;-79
2023/11/27 05:26:03;;;;;;;0.50;0.50;;;15.30;67.90;;;;;;4968755;28;20046;-79
2023/11/27 05:28:29;;;;;;;0.40;0.40;;;15.30;67.80;;;;;;4969334;28;20436;-79
2023/11/27 05:30:55;;;;;;;0.40;0.40;;;15.30;67.80;;;;;;4968536;28;20545;-80
2023/11/27 05:33:20;;;;;;;0.50;0.50;;;15.20;67.80;;;;;;4966165;28;20460;-80
2023/11/27 05:35:46;;;;;;;0.93;0.47;;;15.30;67.80;;;;;;4968645;28;20528;-80
2023/11/27 05:38:13;;;;;;;0.55;0.55;;;15.20;67.80;;;;;;4967382;28;20105;-79
2023/11/27 05:40:38;;;;;;;0.40;0.40;;;15.30;67.80;;;;;;4966738;28;20134;-79
2023/11/27 05:43:05;;;;;;;0.50;0.50;;;15.30;68.00;;;;;;4968635;28;20117;-79
2023/11/27 05:45:31;;;;;;;0.40;0.40;;;15.20;67.90;;;;;;4967355;28;20051;-79
2023/11/27 05:47:56;;;;;;;0.57;0.57;;;15.20;67.90;;;;;;4967967;28;20519;-79
2023/11/27 05:50:22;;;;;;;0.32;0.32;;;15.20;67.90;;;;;;4966391;28;20050;-80
2023/11/27 05:52:48;;;;;;;0.75;0.47;;;15.20;67.90;;;;;;4963229;28;20039;-79
2023/11/27 05:55:14;;;;;;;2.03;0.50;;;15.20;68.70;;;;;;4963201;28;20145;-79
2023/11/27 05:57:39;;;;;;;0.40;0.40;;;15.20;68.00;;;;;;4965466;28;20039;-79
2023/11/27 06:00:06;;;;;;;0.43;0.43;;;15.20;67.90;;;;;;4966081;28;20059;-78
2023/11/27 06:02:31;;;;;;;0.47;0.47;;;15.20;68.20;;;;;;4964421;28;20513;-79
2023/11/27 06:04:57;;;;;;;0.28;0.28;;;15.20;68.00;;;;;;4964188;28;20079;-78
2023/11/27 06:07:23;;;;;;;0.75;0.50;;;15.20;68.10;;;;;;4961166;28;20043;-79
2023/11/27 06:09:48;;;;;;;0.60;0.60;;;15.30;68.10;;;;;;4962637;28;20051;-79
2023/11/27 06:12:14;;;;;;;0.40;0.40;;;15.30;68.00;;;;;;4964772;28;20039;-78
2023/11/27 06:14:40;;;;;;;0.45;0.40;;;15.30;68.10;;;;;;4961131;28;20105;-75
2023/11/27 06:17:05;;;;;;;0.77;0.40;;;15.30;68.20;;;;;;4946158;28;20054;-76
2023/11/27 06:19:31;;;;;;;4.22;2.60;;;15.40;68.60;;;;;;4967299;28;20525;-76
2023/11/27 06:21:58;;;;;;;3.92;1.98;;;15.40;68.40;;;;;;4964446;28;20054;-76
2023/11/27 06:24:25;;;;;;;2.15;1.80;;;15.40;68.20;;;;;;4962238;28;20122;-76
2023/11/27 06:26:50;;;;;;;1.20;1.10;;;15.40;68.80;;;;;;4960979;28;20528;-76
2023/11/27 06:29:16;;;;;;;1.00;1.00;;;15.40;68.40;;;;;;4974640;28;20038;-76
2023/11/27 06:31:42;;;;;;;1.17;1.08;;;15.40;68.60;;;;;;4960889;28;20047;-75
2023/11/27 06:34:07;;;;;;;4.88;3.95;;;15.40;68.60;;;;;;4960071;28;20458;-75
2023/11/27 06:36:33;;;;;;;5.07;3.88;;;15.40;68.60;;;;;;4966383;28;20568;-75
2023/11/27 06:38:58;;;;;;;5.55;4.38;;;15.50;68.60;;;;;;4968502;28;20516;-75
2023/11/27 06:41:25;;;;;;;7.93;5.88;;;15.50;68.70;;;;;;4967143;28;20039;-75
2023/11/27 06:43:51;;;;;;;16.20;10.03;;;15.40;68.60;;;;;;4277030;28;10000426;-75
2023/11/27 06:46:17;;;;;;;14.18;9.13;;;15.50;68.60;;;;;;4963183;28;20310;-75
2023/11/27 06:48:43;;;;;;;11.30;8.02;;;15.50;68.70;;;;;;4961986;28;20161;-75
2023/11/27 06:51:11;;;;;;;11.02;8.25;;;15.50;68.80;;;;;;4964169;28;20089;-75
2023/11/27 06:53:37;;;;;;;10.70;7.88;;;15.50;68.80;;;;;;4962214;28;20047;-75
2023/11/27 06:56:03;;;;;;;9.50;7.20;;;15.50;69.70;;;;;;4963337;28;20050;-74
2023/11/27 06:58:30;;;;;;;11.45;6.25;;;15.50;69.00;;;;;;4962189;28;20412;-74
2023/11/27 07:00:58;;;;;;;12.40;7.97;;;15.50;68.70;;;;;;4963904;28;20477;-75
2023/11/27 07:03:23;;;;;;;11.95;8.00;;;15.50;68.80;;;;;;4960979;28;20035;-75
2023/11/27 07:05:49;;;;;;;8.05;6.30;;;15.60;68.90;;;;;;4949073;28;20120;-75
2023/11/27 07:08:14;;;;;;;9.65;6.93;;;15.60;68.70;;;;;;4962557;28;20682;-76
2023/11/27 07:10:41;;;;;;;9.25;5.97;;;15.60;68.60;;;;;;4946796;28;20050;-74
2023/11/27 07:13:07;;;;;;;9.55;6.00;;;15.50;68.70;;;;;;4960890;28;20434;-76
2023/11/27 07:15:32;;;;;;;8.35;6.32;;;15.50;68.60;;;;;;4960515;28;20453;-75
2023/11/27 07:17:59;;;;;;;8.85;6.15;;;15.60;68.90;;;;;;4965469;28;20600;-75
2023/11/27 07:20:25;;;;;;;9.40;6.45;;;15.50;68.80;;;;;;4966120;28;20109;-74
2023/11/27 07:22:50;;;;;;;9.98;5.63;;;15.60;68.50;;;;;;4968416;28;20047;-75
2023/11/27 07:25:16;;;;;;;7.05;5.45;;;15.60;68.90;;;;;;4949571;28;20048;-74
2023/11/27 07:27:45;;;;;;;5.57;5.00;;;15.50;68.80;;;;;;4965515;28;20086;-74
2023/11/27 07:30:11;;;;;;;8.00;5.45;;;15.50;69.20;;;;;;4967285;28;20058;-74
2023/11/27 07:32:37;;;;;;;5.43;4.80;;;15.50;69.00;;;;;;4965936;28;20045;-74
2023/11/27 07:35:04;;;;;;;5.82;5.10;;;15.50;69.00;;;;;;4951927;28;20055;-74
2023/11/27 07:37:29;;;;;;;6.20;5.15;;;15.50;68.90;;;;;;4967342;28;20043;-75
2023/11/27 07:39:55;;;;;;;6.43;5.05;;;15.50;68.80;;;;;;4966734;28;20528;-74
2023/11/27 07:42:21;;;;;;;6.47;4.88;;;15.50;68.80;;;;;;4953927;28;20046;-75
2023/11/27 07:44:46;;;;;;;7.20;5.68;;;15.50;68.90;;;;;;4968884;28;20043;-75
2023/11/27 07:47:12;;;;;;;8.23;5.35;;;15.50;68.70;;;;;;4967210;28;20505;-74
2023/11/27 07:49:37;;;;;;;6.00;4.93;;;15.50;68.70;;;;;;4968901;28;20519;-75
2023/11/27 07:52:03;;;;;;;6.80;4.32;;;15.50;68.60;;;;;;4949838;28;20042;-74
2023/11/27 07:54:31;;;;;;;4.78;4.05;;;15.50;68.70;;;;;;4968220;28;20417;-75
2023/11/27 07:56:57;;;;;;;5.35;4.47;;;15.50;68.70;;;;;;4967807;28;20568;-74
2023/11/27 07:59:25;;;;;;;5.25;4.70;;;15.50;68.70;;;;;;4983016;28;20517;-75
2023/11/27 08:01:56;;;;;;;6.25;5.05;;;15.50;68.60;;;;;;4970727;28;20127;-75
2023/11/27 08:04:21;;;;;;;5.88;4.57;;;15.50;68.60;;;;;;4969058;28;20138;-75
2023/11/27 08:06:49;;;;;;;7.25;4.20;;;15.50;68.60;;;;;;4968589;28;20051;-75
2023/11/27 08:09:15;;;;;;;5.32;3.75;;;15.50;68.60;;;;;;4961339;28;20035;-74
2023/11/27 08:11:41;;;;;;;5.07;4.28;;;15.50;68.70;;;;;;4966084;28;20066;-74
2023/11/27 08:14:07;;;;;;;4.57;4.10;;;15.50;68.60;;;;;;4966685;28;20097;-74
2023/11/27 08:16:33;;;;;;;3.92;3.55;;;15.50;68.60;;;;;;4968083;28;20050;-74
2023/11/27 08:18:59;;;;;;;5.35;4.22;;;15.50;68.60;;;;;;4968340;28;20046;-74
2023/11/27 08:21:25;;;;;;;4.18;3.15;;;15.50;68.70;;;;;;4966638;28;20058;-75
2023/11/27 08:23:50;;;;;;;3.60;3.30;;;15.40;68.70;;;;;;4967947;28;20163;-74
2023/11/27 08:26:16;;;;;;;3.85;3.22;;;15.50;68.60;;;;;;4968095;28;20059;-74
2023/11/27 08:28:42;;;;;;;4.15;3.78;;;15.50;68.70;;;;;;4969838;28;20086;-75
2023/11/27 08:31:07;;;;;;;3.47;3.17;;;15.40;68.50;;;;;;4968180;28;20051;-74
2023/11/27 08:33:33;;;;;;;3.60;3.33;;;15.50;68.60;;;;;;4965355;28;20527;-75
2023/11/27 08:36:02;;;;;;;3.63;3.13;;;15.40;68.60;;;;;;4965587;28;20046;-75
2023/11/27 08:38:28;;;;;;;3.53;3.20;;;15.40;68.60;;;;;;4967137;28;20513;-75
2023/11/27 08:40:53;;;;;;;3.83;3.20;;;15.40;68.50;;;;;;4970641;28;20130;-74
2023/11/27 08:43:19;;;;;;;4.05;3.30;;;15.40;68.70;;;;;;4967959;28;20125;-74
2023/11/27 08:45:45;;;;;;;4.15;3.22;;;15.40;68.50;;;;;;4967491;28;20057;-75
2023/11/27 08:48:12;;;;;;;4.68;3.05;;;15.40;68.60;;;;;;4966572;28;20035;-75
2023/11/27 08:50:38;;;;;;;3.05;2.75;;;15.40;68.80;;;;;;4968058;28;20043;-74
2023/11/27 08:53:07;;;;;;;3.40;3.10;;;15.40;68.80;;;;;;4967711;28;20040;-74
2023/11/27 08:55:33;;;;;;;4.05;3.60;;;15.40;69.40;;;;;;4968233;28;20043;-75
2023/11/27 08:58:02;;;;;;;3.63;3.30;;;15.40;68.60;;;;;;4966684;28;20051;-75
2023/11/27 09:00:31;;;;;;;3.13;2.92;;;15.40;68.80;;;;;;4965333;28;20051;-75
2023/11/27 09:02:57;;;;;;;2.88;2.65;;;15.40;68.80;;;;;;4966458;28;20131;-74
2023/11/27 09:05:26;;;;;;;4.30;2.88;;;15.40;68.70;;;;;;4965009;28;20042;-74
2023/11/27 09:07:53;;;;;;;2.60;2.40;;;15.40;68.80;;;;;;4963723;28;20039;-74
2023/11/27 09:10:21;;;;;;;2.90;2.70;;;15.40;68.80;;;;;;4966093;28;20054;-74
2023/11/27 09:12:48;;;;;;;3.38;2.65;;;15.40;68.80;;;;;;4968146;28;20542;-74
2023/11/27 09:15:14;;;;;;;3.03;2.80;;;15.40;68.90;;;;;;4968370;28;20390;-74
2023/11/27 09:17:40;;;;;;;4.43;2.83;;;15.40;68.80;;;;;;4966715;28;20077;-74
2023/11/27 09:20:09;;;;;;;2.92;2.70;;;15.40;68.80;;;;;;4966740;28;20653;-74
2023/11/27 09:22:35;;;;;;;3.20;2.63;;;15.40;68.80;;;;;;4967045;28;20070;-74
2023/11/27 09:25:00;;;;;;;3.67;2.88;;;15.40;68.90;;;;;;4965136;28;20548;-74
2023/11/27 09:27:26;;;;;;;2.40;2.20;;;15.40;68.80;;;;;;4965867;28;20456;-74
2023/11/27 09:29:51;;;;;;;2.60;2.40;;;15.40;68.80;;;;;;4966280;28;20757;-74
2023/11/27 09:32:17;;;;;;;2.58;2.10;;;15.40;68.80;;;;;;4967588;28;20370;-74
2023/11/27 09:34:42;;;;;;;2.25;2.10;;;15.30;68.80;;;;;;4967944;28;20034;-74
2023/11/27 09:37:08;;;;;;;2.50;2.30;;;15.30;68.80;;;;;;4966744;28;20027;-74
2023/11/27 09:39:34;;;;;;;2.03;1.92;;;15.40;68.90;;;;;;4965102;28;20142;-75
2023/11/27 09:42:00;;;;;;;2.40;2.20;;;15.40;68.80;;;;;;4967242;28;20094;-74
2023/11/27 09:44:25;;;;;;;2.55;2.33;;;15.40;68.90;;;;;;4964918;28;20050;-74
2023/11/27 09:46:53;;;;;;;2.03;1.83;;;15.40;69.00;;;;;;4967739;28;20130;-74
2023/11/27 09:49:23;;;;;;;2.20;2.05;;;15.40;68.90;;;;;;4962886;28;20389;-74
2023/11/27 09:51:50;;;;;;;1.70;1.60;;;15.30;68.90;;;;;;4964471;28;20134;-75
2023/11/27 09:54:16;;;;;;;2.05;1.95;;;15.30;68.90;;;;;;4965961;28;20038;-74
2023/11/27 09:56:42;;;;;;;1.92;1.83;;;15.40;69.00;;;;;;4962477;28;20038;-74
2023/11/27 09:59:08;;;;;;;2.00;1.73;;;15.40;68.90;;;;;;4963982;28;20429;-74
2023/11/27 10:01:35;;;;;;;2.15;1.95;;;15.30;69.80;;;;;;4964509;28;20469;-74
2023/11/27 10:04:03;;;;;;;1.98;1.80;;;15.40;69.00;;;;;;4962758;28;20038;-74
2023/11/27 10:06:32;;;;;;;2.35;2.15;;;15.40;69.00;;;;;;4966444;28;20121;-75
2023/11/27 10:09:07;;;;;;;1.90;1.67;;;15.40;68.90;;;;;;4966688;28;20073;-74
2023/11/27 10:11:33;;;;;;;2.33;2.13;;;15.30;68.90;;;;;;4962301;28;20047;-75
2023/11/27 10:14:05;;;;;;;1.77;1.65;;;15.40;68.90;;;;;;4964962;28;20043;-74
2023/11/27 10:16:33;;;;;;;1.70;1.60;;;15.40;69.00;;;;;;4964855;28;20090;-75
2023/11/27 10:19:06;;;;;;;1.85;1.75;;;15.40;68.90;;;;;;4962378;28;20050;-74
2023/11/27 10:21:35;;;;;;;1.75;1.65;;;15.30;68.90;;;;;;4960096;28;20532;-75
2023/11/27 10:24:01;;;;;;;1.98;1.60;;;15.40;69.00;;;;;;4965865;28;20062;-74
2023/11/27 10:26:30;;;;;;;1.63;1.52;;;15.40;69.10;;;;;;4965902;28;20070;-74
2023/11/27 10:28:57;;;;;;;2.25;1.58;;;15.30;69.00;;;;;;4964927;28;20054;-74
2023/11/27 10:31:23;;;;;;;1.80;1.70;;;15.30;69.00;;;;;;4965307;28;20390;-74
2023/11/27 10:33:49;;;;;;;1.60;1.50;;;15.30;69.00;;;;;;4962496;28;20077;-74
2023/11/27 10:36:22;;;;;;;1.50;1.33;;;15.30;69.00;;;;;;4964320;28;20055;-74
2023/11/27 10:38:57;;;;;;;2.25;1.83;;;15.30;69.00;;;;;;4961173;28;20139;-74
2023/11/27 10:41:23;;;;;;;1.63;1.52;;;15.30;69.00;;;;;;4963499;28;20505;-74
2023/11/27 10:43:49;;;;;;;2.30;2.10;;;15.30;69.70;;;;;;4963243;28;20031;-74
2023/11/27 10:46:15;;;;;;;1.90;1.70;;;15.30;69.10;;;;;;4959276;28;20099;-74
2023/11/27 10:48:40;;;;;;;1.85;1.70;;;15.30;69.00;;;;;;4960246;28;20035;-75
2023/11/27 10:51:06;;;;;;;2.00;1.80;;;15.30;69.00;;;;;;4964365;28;20121;-74
2023/11/27 10:53:33;;;;;;;1.58;1.48;;;15.30;69.00;;;;;;4965359;28;20512;-75
2023/11/27 10:55:58;;;;;;;1.73;1.52;;;15.30;69.00;;;;;;4964949;28;20097;-74
2023/11/27 10:58:24;;;;;;;1.70;1.60;;;15.30;69.20;;;;;;4963967;28;20051;-74
2023/11/27 11:00:56;;;;;;;1.40;1.30;;;15.30;69.20;;;;;;4964794;28;20289;-74
2023/11/27 11:03:23;;;;;;;1.50;1.40;;;15.30;69.10;;;;;;4963160;28;20039;-74
2023/11/27 11:05:50;;;;;;;1.33;1.23;;;15.30;69.10;;;;;;4961443;28;20134;-74
2023/11/27 11:08:26;;;;;;;1.63;1.50;;;15.30;69.10;;;;;;4963320;28;20074;-74
2023/11/27 11:10:58;;;;;;;1.45;1.35;;;15.30;69.00;;;;;;4959208;28;20509;-75
2023/11/27 11:13:25;;;;;;;1.75;1.35;;;15.30;69.30;;;;;;4964781;28;20051;-75
2023/11/27 11:16:14;;;;;;;1.67;1.58;;;15.30;70.10;;;;;;4963240;28;20050;-75
2023/11/27 11:18:57;;;;;;;1.95;1.77;;;15.40;69.10;;;;;;4964655;28;20520;-76
2023/11/27 11:21:58;;;;;;;1.75;1.30;;;15.30;69.00;;;;;;4955663;28;20066;-75
2023/11/27 11:24:26;;;;;;;12.35;11.40;;;15.40;69.00;;;;;;4957774;28;20584;-76
2023/11/27 11:27:16;;;;;;;18.05;16.38;;;15.40;69.90;;;;;;4948312;28;20047;-75
2023/11/27 11:29:43;;;;;;;38.25;28.45;;;15.50;69.10;;;;;;4942511;28;20042;-75
2023/11/27 11:32:16;;;;;;;149.63;95.57;;;15.50;69.00;;;;;;4926983;28;20051;-75
2023/11/27 11:34:44;;;;;;;240.82;148.52;;;15.40;71.20;;;;;;4943738;28;20421;-76
2023/11/27 11:37:17;;;;;;;333.67;202.30;;;15.20;72.10;;;;;;4941847;28;20043;-75
2023/11/27 11:39:47;;;;;;;346.98;216.70;;;15.30;71.40;;;;;;4935249;28;20051;-75
2023/11/27 11:42:13;;;;;;;413.23;264.45;;;15.40;70.90;;;;;;4942748;28;20537;-75
2023/11/27 11:44:39;;;;;;;409.65;267.50;;;15.50;70.90;;;;;;4926674;28;20039;-76
2023/11/27 11:47:24;;;;;;;387.98;257.88;;;15.60;70.60;;;;;;4935713;28;20054;-76
2023/11/27 11:49:49;;;;;;;;;;;15.60;70.20;;;;;;4950704;28;20098;-76
2023/11/27 11:52:16;;;;;;;366.13;235.68;;;15.60;71.00;;;;;;4596600;28;9999859;-77
2023/11/27 11:54:42;;;;;;;370.70;234.48;;;15.70;70.60;;;;;;4928770;28;20171;-75
2023/11/27 11:57:14;;;;;;;353.20;231.82;;;15.60;70.70;;;;;;4924069;28;20043;-75
2023/11/27 11:59:44;;;;;;;365.08;237.30;;;15.70;70.50;;;;;;4927400;28;20046;-75
2023/11/27 12:02:14;;;;;;;349.60;220.63;;;15.70;70.60;;;;;;4925763;28;20248;-75
2023/11/27 12:04:40;;;;;;;332.83;211.38;;;15.60;70.80;;;;;;4914262;28;20142;-75
2023/11/27 12:07:09;;;;;;;332.40;215.23;;;15.60;70.70;;;;;;4923463;28;20055;-75
2023/11/27 12:09:35;;;;;;;320.08;204.13;;;15.60;70.70;;;;;;4938984;28;20051;-76
2023/11/27 12:12:00;;;;;;;321.55;205.70;;;15.60;70.80;;;;;;4938154;28;20591;-75
2023/11/27 12:14:28;;;;;;;307.60;195.27;;;15.60;70.80;;;;;;4939386;28;20310;-75
2023/11/27 12:16:54;;;;;;;309.38;199.90;;;15.60;70.70;;;;;;4946833;28;20140;-75
2023/11/27 12:19:22;;;;;;;296.80;189.60;;;15.60;70.90;;;;;;4936604;28;20051;-75
2023/11/27 12:21:50;;;;;;;296.52;188.98;;;15.60;70.60;;;;;;4937544;28;21264;-75
2023/11/27 12:24:17;;;;;;;296.80;189.43;;;15.60;70.70;;;;;;4955200;28;20149;-75
2023/11/27 12:26:49;;;;;;;289.15;181.80;;;15.60;70.80;;;;;;4952407;28;20126;-76
2023/11/27 12:29:19;;;;;;;;;;;15.60;70.90;;;;;;4937754;28;20066;-75
2023/11/27 12:31:47;;;;;;;279.67;175.00;;;15.60;70.70;;;;;;4939877;28;19952;-75
2023/11/27 12:34:15;;;;;;;274.88;173.32;;;15.60;70.70;;;;;;4939714;28;20047;-75
2023/11/27 12:36:40;;;;;;;274.55;169.98;;;15.60;70.70;;;;;;4939677;28;20045;-76
2023/11/27 12:39:10;;;;;;;257.90;161.25;;;15.70;70.70;;;;;;4939323;28;20059;-75
2023/11/27 12:41:36;;;;;;;248.73;156.50;;;15.70;70.50;;;;;;4926812;28;20129;-76